Time;durP1;ratioP1;P1;durP2;ratioP2;P2;SDS_P1;SDS_P2;PMS_P1;PMS_P2;Temp;Humidity;BMP_temperature;BMP_pressure;BME280_temperature;BME280_humidity;BME280_pressure;Samples;Min_cycle;Max_cycle;Signal;HPM_P1;HPM_P2
2023/08/11 00:02:07;;;;;;;0.30;0.30;;;;;;;;;;5053034;28;20021;-82
2023/08/11 00:04:33;;;;;;;0.10;0.10;;;;;;;;;;5052790;28;20025;-81
2023/08/11 00:07:00;;;;;;;0.20;0.20;;;;;;;;;;5052741;28;20094;-82
2023/08/11 00:09:26;;;;;;;0.10;0.10;;;;;;;;;;5052861;28;20397;-81
2023/08/11 00:11:52;;;;;;;0.10;0.10;;;;;;;;;;5052624;28;20511;-81
2023/08/11 00:14:18;;;;;;;0.10;0.10;;;;;;;;;;5052651;28;20090;-82
2023/08/11 00:16:44;;;;;;;0.20;0.20;;;;;;;;;;5053001;28;20033;-81
2023/08/11 00:19:10;;;;;;;0.47;0.10;;;;;;;;;;5052450;28;20075;-81
2023/08/11 00:21:36;;;;;;;0.10;0.10;;;;;;;;;;5052519;28;20106;-81
2023/08/11 00:24:03;;;;;;;0.10;0.10;;;;;;;;;;5051861;28;20587;-81
2023/08/11 00:26:30;;;;;;;0.10;0.10;;;;;;;;;;5052409;28;20037;-81
2023/08/11 00:28:56;;;;;;;0.00;0.00;;;;;;;;;;5052293;28;20486;-82
2023/08/11 00:31:22;;;;;;;0.10;0.10;;;;;;;;;;5052268;28;20037;-82
2023/08/11 00:33:51;;;;;;;0.13;0.13;;;;;;;;;;5051641;28;20139;-82
2023/08/11 00:36:17;;;;;;;0.00;0.00;;;;;;;;;;5052361;28;20548;-81
2023/08/11 00:38:43;;;;;;;0.10;0.10;;;;;;;;;;5051045;28;20067;-81
2023/08/11 00:41:10;;;;;;;0.00;0.00;;;;;;;;;;5052736;28;20432;-81
2023/08/11 00:43:37;;;;;;;0.00;0.00;;;;;;;;;;5052158;28;20121;-81
2023/08/11 00:46:13;;;;;;;0.10;0.10;;;;;;;;;;5052067;28;20043;-81
2023/08/11 00:48:41;;;;;;;0.00;0.00;;;;;;;;;;5052398;28;20143;-81
2023/08/11 00:51:08;;;;;;;0.63;0.47;;;;;;;;;;5051783;28;20024;-82
2023/08/11 00:53:34;;;;;;;0.00;0.00;;;;;;;;;;5052158;28;20501;-81
2023/08/11 00:56:02;;;;;;;0.25;0.17;;;;;;;;;;5051890;28;20048;-82
2023/08/11 00:58:28;;;;;;;0.00;0.00;;;;;;;;;;5051700;28;20036;-82
2023/08/11 01:00:55;;;;;;;0.10;0.10;;;;;;;;;;5052070;28;20040;-82
2023/08/11 01:03:21;;;;;;;0.10;0.10;;;;;;;;;;5052396;28;20029;-81
2023/08/11 01:05:49;;;;;;;0.20;0.20;;;;;;;;;;5051433;28;20029;-81
2023/08/11 01:08:21;;;;;;;0.17;0.17;;;;;;;;;;5051890;28;20058;-81
2023/08/11 01:11:08;;;;;;;0.10;0.10;;;;;;;;;;5051774;28;20028;-81
2023/08/11 01:13:36;;;;;;;0.15;0.15;;;;;;;;;;5052094;28;20025;-81
2023/08/11 01:16:04;;;;;;;0.10;0.10;;;;;;;;;;5051834;28;20033;-81
2023/08/11 01:18:30;;;;;;;0.00;0.00;;;;;;;;;;5052017;28;20033;-81
2023/08/11 01:21:00;;;;;;;0.10;0.10;;;;;;;;;;5051476;28;20502;-82
2023/08/11 01:23:26;;;;;;;0.25;0.10;;;;;;;;;;5051519;28;20538;-81
2023/08/11 01:25:52;;;;;;;0.10;0.10;;;;;;;;;;5051653;28;20386;-81
2023/08/11 01:28:18;;;;;;;0.10;0.10;;;;;;;;;;5052148;28;20029;-82
2023/08/11 01:30:45;;;;;;;0.38;0.38;;;;;;;;;;5051708;28;20036;-81
2023/08/11 01:33:11;;;;;;;0.32;0.32;;;;;;;;;;5049978;28;20124;-81
2023/08/11 01:35:37;;;;;;;0.15;0.15;;;;;;;;;;5051547;28;20373;-81
2023/08/11 01:38:03;;;;;;;0.10;0.10;;;;;;;;;;5051987;28;20025;-81
2023/08/11 01:40:29;;;;;;;0.20;0.20;;;;;;;;;;5051487;28;20478;-81
2023/08/11 01:42:56;;;;;;;0.10;0.10;;;;;;;;;;5051556;28;20578;-81
2023/08/11 01:45:26;;;;;;;0.30;0.30;;;;;;;;;;5051929;28;20139;-81
2023/08/11 01:47:53;;;;;;;0.10;0.10;;;;;;;;;;5051570;28;20032;-81
2023/08/11 01:50:19;;;;;;;0.10;0.10;;;;;;;;;;5053993;28;20129;-81
2023/08/11 01:52:47;;;;;;;0.10;0.10;;;;;;;;;;5055593;28;20373;-81
2023/08/11 01:55:13;;;;;;;0.10;0.10;;;;;;;;;;5055169;28;20477;-81
2023/08/11 01:57:40;;;;;;;0.10;0.10;;;;;;;;;;5055304;28;20032;-82
2023/08/11 02:00:09;;;;;;;0.30;0.30;;;;;;;;;;5055244;28;20477;-82
2023/08/11 02:02:35;;;;;;;0.10;0.10;;;;;;;;;;5055498;28;20098;-81
2023/08/11 02:05:02;;;;;;;0.10;0.10;;;;;;;;;;5054884;28;20444;-81
2023/08/11 02:07:29;;;;;;;0.22;0.22;;;;;;;;;;5055236;28;20400;-81
2023/08/11 02:09:56;;;;;;;0.10;0.10;;;;;;;;;;5054909;28;20091;-81
2023/08/11 02:12:22;;;;;;;0.10;0.10;;;;;;;;;;5055098;28;20021;-81
2023/08/11 02:14:48;;;;;;;0.43;0.40;;;;;;;;;;5053824;28;20458;-81
2023/08/11 02:17:14;;;;;;;0.20;0.20;;;;;;;;;;5054748;28;20465;-81
2023/08/11 02:19:40;;;;;;;0.13;0.13;;;;;;;;;;5054506;28;20055;-81
2023/08/11 02:22:06;;;;;;;0.10;0.10;;;;;;;;;;5054521;28;20128;-81
2023/08/11 02:24:32;;;;;;;0.15;0.15;;;;;;;;;;5054943;28;20021;-81
2023/08/11 02:26:58;;;;;;;0.30;0.30;;;;;;;;;;5054719;28;20025;-81
2023/08/11 02:29:24;;;;;;;0.38;0.17;;;;;;;;;;5054650;28;20036;-81
2023/08/11 02:31:50;;;;;;;0.63;0.38;;;;;;;;;;5055017;28;20044;-81
2023/08/11 02:34:16;;;;;;;0.30;0.30;;;;;;;;;;5054318;28;20063;-81
2023/08/11 02:36:42;;;;;;;0.30;0.30;;;;;;;;;;5054548;28;20359;-81
2023/08/11 02:39:09;;;;;;;0.10;0.10;;;;;;;;;;5054734;28;20041;-81
2023/08/11 02:41:35;;;;;;;0.10;0.10;;;;;;;;;;5054698;28;20139;-81
2023/08/11 02:44:02;;;;;;;0.17;0.17;;;;;;;;;;5054398;28;20029;-81
2023/08/11 02:46:28;;;;;;;0.10;0.10;;;;;;;;;;5054401;28;20028;-81
2023/08/11 02:48:54;;;;;;;0.10;0.10;;;;;;;;;;5053908;28;20371;-81
2023/08/11 02:51:20;;;;;;;0.10;0.10;;;;;;;;;;5054211;28;20021;-81
2023/08/11 02:53:46;;;;;;;0.10;0.10;;;;;;;;;;5054033;28;20021;-81
2023/08/11 02:56:15;;;;;;;0.10;0.10;;;;;;;;;;5054271;28;20108;-81
2023/08/11 02:58:42;;;;;;;0.10;0.10;;;;;;;;;;5054353;28;20482;-81
2023/08/11 03:01:08;;;;;;;0.13;0.13;;;;;;;;;;5053027;28;20018;-82
2023/08/11 03:03:34;;;;;;;0.22;0.20;;;;;;;;;;5053744;28;20029;-81
2023/08/11 03:06:00;;;;;;;0.10;0.10;;;;;;;;;;5053940;28;20496;-81
2023/08/11 03:08:27;;;;;;;0.10;0.10;;;;;;;;;;5054251;28;20470;-81
2023/08/11 03:10:53;;;;;;;0.20;0.20;;;;;;;;;;5053994;28;20107;-81
2023/08/11 03:13:19;;;;;;;0.00;0.00;;;;;;;;;;5053807;28;20037;-81
2023/08/11 03:15:45;;;;;;;0.10;0.10;;;;;;;;;;5053699;28;20025;-81
2023/08/11 03:18:11;;;;;;;0.08;0.08;;;;;;;;;;5053843;28;20147;-81
2023/08/11 03:20:38;;;;;;;0.20;0.20;;;;;;;;;;5053507;28;20509;-81
2023/08/11 03:23:04;;;;;;;0.10;0.10;;;;;;;;;;5053816;28;20366;-81
2023/08/11 03:25:30;;;;;;;0.20;0.20;;;;;;;;;;5053645;28;20107;-81
2023/08/11 03:27:56;;;;;;;0.10;0.10;;;;;;;;;;5054004;28;20021;-81
2023/08/11 03:30:23;;;;;;;0.00;0.00;;;;;;;;;;5053356;28;20086;-80
2023/08/11 03:32:49;;;;;;;0.20;0.20;;;;;;;;;;5053588;28;20025;-81
2023/08/11 03:35:17;;;;;;;0.40;0.35;;;;;;;;;;5053402;28;20462;-81
2023/08/11 03:37:43;;;;;;;0.17;0.17;;;;;;;;;;5053668;28;20037;-81
2023/08/11 03:40:12;;;;;;;0.20;0.20;;;;;;;;;;5053395;28;20033;-81
2023/08/11 03:42:42;;;;;;;0.20;0.20;;;;;;;;;;5053358;28;20060;-81
2023/08/11 03:45:11;;;;;;;0.10;0.10;;;;;;;;;;5052902;28;20532;-81
2023/08/11 03:47:37;;;;;;;0.20;0.20;;;;;;;;;;5053088;28;20478;-81
2023/08/11 03:50:03;;;;;;;0.10;0.10;;;;;;;;;;5053122;28;20039;-81
2023/08/11 03:52:29;;;;;;;0.28;0.28;;;;;;;;;;5053422;28;20028;-81
2023/08/11 03:54:56;;;;;;;0.80;0.20;;;;;;;;;;5051810;28;20021;-82
2023/08/11 03:57:22;;;;;;;0.10;0.10;;;;;;;;;;5052945;28;20103;-81
2023/08/11 03:59:48;;;;;;;0.10;0.10;;;;;;;;;;5052590;28;20509;-81
2023/08/11 04:02:14;;;;;;;0.10;0.10;;;;;;;;;;5052953;28;20142;-81
2023/08/11 04:04:40;;;;;;;0.10;0.10;;;;;;;;;;5053146;28;20141;-81
2023/08/11 04:07:06;;;;;;;0.20;0.20;;;;;;;;;;5052661;28;20135;-81
2023/08/11 04:09:34;;;;;;;0.10;0.10;;;;;;;;;;5053079;28;20100;-81
2023/08/11 04:12:00;;;;;;;0.22;0.20;;;;;;;;;;5052479;28;20029;-81
2023/08/11 04:14:26;;;;;;;0.10;0.10;;;;;;;;;;5052387;28;20025;-81
2023/08/11 04:16:52;;;;;;;0.20;0.20;;;;;;;;;;5053059;28;20028;-81
2023/08/11 04:19:18;;;;;;;0.20;0.20;;;;;;;;;;5052436;28;20366;-81
2023/08/11 04:21:44;;;;;;;0.15;0.15;;;;;;;;;;5052480;28;20041;-81
2023/08/11 04:24:10;;;;;;;0.20;0.20;;;;;;;;;;5052357;28;20452;-81
2023/08/11 04:26:36;;;;;;;0.32;0.30;;;;;;;;;;5052691;28;20477;-81
2023/08/11 04:29:03;;;;;;;0.10;0.10;;;;;;;;;;5052304;28;20029;-82
2023/08/11 04:31:30;;;;;;;0.13;0.13;;;;;;;;;;5052394;28;20025;-81
2023/08/11 04:33:56;;;;;;;0.10;0.10;;;;;;;;;;5052553;28;20061;-81
2023/08/11 04:36:22;;;;;;;0.30;0.30;;;;;;;;;;5052464;28;20079;-81
2023/08/11 04:38:48;;;;;;;0.10;0.10;;;;;;;;;;5052352;28;20116;-81
2023/08/11 04:41:14;;;;;;;0.30;0.30;;;;;;;;;;5052190;28;20104;-81
2023/08/11 04:43:40;;;;;;;0.28;0.28;;;;;;;;;;5051794;28;20051;-81
2023/08/11 04:46:06;;;;;;;0.10;0.10;;;;;;;;;;5052475;28;20541;-81
2023/08/11 04:48:32;;;;;;;0.10;0.10;;;;;;;;;;5052028;28;20047;-81
2023/08/11 04:50:59;;;;;;;0.10;0.10;;;;;;;;;;5052270;28;20600;-81
2023/08/11 04:53:25;;;;;;;0.28;0.28;;;;;;;;;;5051988;28;20070;-81
2023/08/11 04:55:51;;;;;;;0.45;0.30;;;;;;;;;;5051952;28;20362;-81
2023/08/11 04:58:17;;;;;;;0.10;0.10;;;;;;;;;;5051666;28;20109;-81
2023/08/11 05:00:44;;;;;;;0.10;0.10;;;;;;;;;;5051899;28;20048;-81
2023/08/11 05:03:10;;;;;;;0.15;0.10;;;;;;;;;;5051737;28;20474;-81
2023/08/11 05:05:36;;;;;;;0.20;0.20;;;;;;;;;;5050871;28;20385;-81
2023/08/11 05:08:02;;;;;;;0.20;0.20;;;;;;;;;;5051984;28;20032;-81
2023/08/11 05:10:28;;;;;;;0.10;0.10;;;;;;;;;;5051824;28;20481;-81
2023/08/11 05:12:54;;;;;;;0.10;0.10;;;;;;;;;;5051609;28;20104;-81
2023/08/11 05:15:20;;;;;;;0.47;0.30;;;;;;;;;;5052205;28;20061;-81
2023/08/11 05:17:46;;;;;;;0.05;0.05;;;;;;;;;;5051676;28;20132;-81
2023/08/11 05:20:14;;;;;;;0.00;0.00;;;;;;;;;;5051742;28;20025;-81
2023/08/11 05:22:41;;;;;;;0.10;0.10;;;;;;;;;;5051748;28;20021;-83
2023/08/11 05:25:07;;;;;;;0.00;0.00;;;;;;;;;;5054125;28;20112;-84
2023/08/11 05:27:33;;;;;;;0.10;0.10;;;;;;;;;;5055652;28;20080;-84
2023/08/11 05:29:59;;;;;;;0.10;0.10;;;;;;;;;;5056185;28;20025;-86
2023/08/11 05:32:26;;;;;;;0.10;0.10;;;;;;;;;;5055714;28;20021;-81
2023/08/11 05:34:52;;;;;;;0.10;0.10;;;;;;;;;;5055772;28;20032;-81
2023/08/11 05:37:19;;;;;;;0.10;0.10;;;;;;;;;;5055563;28;20033;-81
2023/08/11 05:39:45;;;;;;;0.15;0.15;;;;;;;;;;5055845;28;20033;-81
2023/08/11 05:42:11;;;;;;;0.08;0.08;;;;;;;;;;5055000;28;20033;-81
2023/08/11 05:44:37;;;;;;;0.28;0.28;;;;;;;;;;5055867;28;20397;-83
2023/08/11 05:47:04;;;;;;;0.00;0.00;;;;;;;;;;5055453;28;20045;-82
2023/08/11 05:49:30;;;;;;;0.10;0.10;;;;;;;;;;5055245;28;20062;-83
2023/08/11 05:51:56;;;;;;;0.00;0.00;;;;;;;;;;5055610;28;20025;-83
2023/08/11 05:54:22;;;;;;;0.00;0.00;;;;;;;;;;5055243;28;20033;-83
2023/08/11 05:56:49;;;;;;;0.13;0.13;;;;;;;;;;5054918;28;20021;-83
2023/08/11 05:59:15;;;;;;;0.10;0.10;;;;;;;;;;5055497;28;20379;-83
2023/08/11 06:01:41;;;;;;;0.10;0.10;;;;;;;;;;5055158;28;20104;-83
2023/08/11 06:04:07;;;;;;;0.13;0.13;;;;;;;;;;5054408;28;20541;-82
2023/08/11 06:06:32;;;;;;;0.10;0.10;;;;;;;;;;5054897;28;20029;-83
2023/08/11 06:08:58;;;;;;;1.23;0.47;;;;;;;;;;5055426;28;20493;-83
2023/08/11 06:11:25;;;;;;;1.20;0.20;;;;;;;;;;5054834;28;20017;-83
2023/08/11 06:13:52;;;;;;;0.13;0.13;;;;;;;;;;5054887;28;20037;-83
2023/08/11 06:16:18;;;;;;;0.10;0.10;;;;;;;;;;5055004;28;20097;-82
2023/08/11 06:18:44;;;;;;;0.10;0.10;;;;;;;;;;5055285;28;20083;-82
2023/08/11 06:21:10;;;;;;;0.00;0.00;;;;;;;;;;5054728;28;20053;-82
2023/08/11 06:23:37;;;;;;;0.10;0.10;;;;;;;;;;5054763;28;20485;-82
2023/08/11 06:26:03;;;;;;;0.10;0.10;;;;;;;;;;5054744;28;20066;-82
2023/08/11 06:28:29;;;;;;;0.32;0.32;;;;;;;;;;5054198;28;20103;-83
2023/08/11 06:30:55;;;;;;;0.10;0.10;;;;;;;;;;5054096;28;20100;-83
2023/08/11 06:33:21;;;;;;;0.10;0.10;;;;;;;;;;5034736;28;20057;-85
2023/08/11 06:35:47;;;;;;;0.20;0.20;;;;;;;;;;5038126;28;20493;-85
2023/08/11 06:38:13;;;;;;;0.10;0.10;;;;;;;;;;5050277;28;20480;-84
2023/08/11 06:40:39;;;;;;;0.13;0.13;;;;;;;;;;5053167;28;20444;-85
2023/08/11 06:43:06;;;;;;;0.10;0.10;;;;;;;;;;5052829;28;20025;-85
2023/08/11 06:45:32;;;;;;;0.00;0.00;;;;;;;;;;5053202;28;20440;-84
2023/08/11 06:47:59;;;;;;;0.05;0.05;;;;;;;;;;5053737;28;20025;-85
2023/08/11 06:50:25;;;;;;;0.00;0.00;;;;;;;;;;5054602;28;20028;-85
2023/08/11 06:52:51;;;;;;;0.10;0.10;;;;;;;;;;5049186;28;20032;-85
2023/08/11 06:55:18;;;;;;;0.10;0.10;;;;;;;;;;5050804;28;20029;-85
2023/08/11 06:57:44;;;;;;;0.25;0.25;;;;;;;;;;5054357;28;20025;-85
2023/08/11 07:00:10;;;;;;;0.10;0.10;;;;;;;;;;5053402;28;20115;-85
2023/08/11 07:02:36;;;;;;;0.20;0.20;;;;;;;;;;5049510;28;20021;-85
2023/08/11 07:05:03;;;;;;;0.17;0.17;;;;;;;;;;5052838;28;20029;-85
2023/08/11 07:07:29;;;;;;;0.17;0.17;;;;;;;;;;5053317;28;20112;-85
2023/08/11 07:09:55;;;;;;;0.00;0.00;;;;;;;;;;5033944;28;20022;-85
2023/08/11 07:12:21;;;;;;;0.10;0.10;;;;;;;;;;5035067;28;20456;-85
2023/08/11 07:14:47;;;;;;;0.95;0.52;;;;;;;;;;5041105;28;20024;-85
2023/08/11 07:17:14;;;;;;;0.20;0.20;;;;;;;;;;5053832;28;20033;-85
2023/08/11 07:19:40;;;;;;;0.10;0.10;;;;;;;;;;5049299;28;20448;-85
2023/08/11 07:22:06;;;;;;;0.10;0.10;;;;;;;;;;5053456;28;20048;-85
2023/08/11 07:24:32;;;;;;;0.20;0.20;;;;;;;;;;5048592;28;20032;-85
2023/08/11 07:26:58;;;;;;;0.10;0.10;;;;;;;;;;5063034;28;20108;-85
2023/08/11 07:29:24;;;;;;;0.30;0.30;;;;;;;;;;5035160;28;20116;-85
2023/08/11 07:31:50;;;;;;;0.25;0.25;;;;;;;;;;5044680;28;20489;-85
2023/08/11 07:34:16;;;;;;;0.10;0.10;;;;;;;;;;5053313;28;20025;-85
2023/08/11 07:36:43;;;;;;;0.10;0.10;;;;;;;;;;5045812;28;20083;-85
2023/08/11 07:39:09;;;;;;;0.10;0.10;;;;;;;;;;5033118;28;20554;-85
2023/08/11 07:41:36;;;;;;;0.20;0.20;;;;;;;;;;5033833;28;20498;-85
2023/08/11 07:44:02;;;;;;;0.15;0.15;;;;;;;;;;5033016;28;20032;-85
2023/08/11 07:46:28;;;;;;;0.10;0.10;;;;;;;;;;5032987;28;20474;-86
2023/08/11 07:48:54;;;;;;;0.28;0.28;;;;;;;;;;5040975;28;20363;-85
2023/08/11 07:51:20;;;;;;;0.35;0.20;;;;;;;;;;5038846;28;20020;-81
2023/08/11 07:53:46;;;;;;;0.13;0.13;;;;;;;;;;5052053;28;20130;-84
2023/08/11 07:56:12;;;;;;;0.30;0.30;;;;;;;;;;5048195;28;20493;-84
2023/08/11 07:58:39;;;;;;;0.00;0.00;;;;;;;;;;5052681;28;20064;-84
2023/08/11 08:01:06;;;;;;;0.10;0.10;;;;;;;;;;5053084;28;20025;-85
2023/08/11 08:03:32;;;;;;;0.95;0.40;;;;;;;;;;5040045;28;20029;-86
2023/08/11 08:05:58;;;;;;;0.20;0.20;;;;;;;;;;5052514;28;20029;-84
2023/08/11 08:08:24;;;;;;;0.15;0.15;;;;;;;;;;5052340;28;20036;-84
2023/08/11 08:10:50;;;;;;;0.30;0.30;;;;;;;;;;5053336;28;20033;-84
2023/08/11 08:13:17;;;;;;;0.60;0.22;;;;;;;;;;5051966;28;20020;-83
2023/08/11 08:15:43;;;;;;;0.15;0.10;;;;;;;;;;5051890;28;20029;-84
2023/08/11 08:18:09;;;;;;;0.52;0.52;;;;;;;;;;5050349;28;20110;-85
2023/08/11 08:20:35;;;;;;;0.40;0.40;;;;;;;;;;5041140;28;20502;-85
2023/08/11 08:23:02;;;;;;;0.30;0.30;;;;;;;;;;5052477;28;20032;-85
2023/08/11 08:25:28;;;;;;;0.10;0.10;;;;;;;;;;5052342;28;20056;-85
2023/08/11 08:27:54;;;;;;;0.70;0.30;;;;;;;;;;5044242;28;20033;-86
2023/08/11 08:30:20;;;;;;;0.50;0.50;;;;;;;;;;5051278;28;20055;-85
2023/08/11 08:32:46;;;;;;;0.80;0.35;;;;;;;;;;5051166;28;20052;-85
2023/08/11 08:35:12;;;;;;;0.40;0.40;;;;;;;;;;5053326;28;20057;-92
2023/08/11 08:37:38;;;;;;;0.50;0.50;;;;;;;;;;5052606;28;20474;-86
2023/08/11 08:40:07;;;;;;;0.40;0.40;;;;;;;;;;5052411;28;20401;-86
2023/08/11 08:42:34;;;;;;;0.15;0.15;;;;;;;;;;5052322;28;20028;-84
2023/08/11 08:45:00;;;;;;;0.30;0.30;;;;;;;;;;5050346;28;20112;-85
2023/08/11 08:47:26;;;;;;;0.45;0.45;;;;;;;;;;5052174;28;20422;-85
2023/08/11 08:49:52;;;;;;;0.22;0.22;;;;;;;;;;5051642;28;20027;-85
2023/08/11 08:52:18;;;;;;;0.82;0.60;;;;;;;;;;5051382;28;20032;-84
2023/08/11 08:54:45;;;;;;;0.25;0.25;;;;;;;;;;5050873;28;20087;-84
2023/08/11 08:57:12;;;;;;;0.50;0.50;;;;;;;;;;5045922;28;20143;-84
2023/08/11 08:59:38;;;;;;;0.10;0.10;;;;;;;;;;5050563;28;20071;-84
2023/08/11 09:02:06;;;;;;;0.80;0.75;;;;;;;;;;5052074;28;20243;-88
2023/08/11 09:04:32;;;;;;;0.57;0.40;;;;;;;;;;5050295;28;20024;-82
2023/08/11 09:06:59;;;;;;;0.63;0.63;;;;;;;;;;5051597;28;20017;-84
2023/08/11 09:09:27;;;;;;;0.28;0.20;;;;;;;;;;5052718;28;20044;-87
2023/08/11 09:11:53;;;;;;;0.45;0.45;;;;;;;;;;5056816;28;20100;-84
2023/08/11 09:14:20;;;;;;;0.35;0.32;;;;;;;;;;5051943;28;20036;-85
2023/08/11 09:16:46;;;;;;;0.75;0.65;;;;;;;;;;5051789;28;20045;-85
2023/08/11 09:19:13;;;;;;;0.20;0.20;;;;;;;;;;5051327;28;20398;-84
2023/08/11 09:21:43;;;;;;;0.85;0.35;;;;;;;;;;5051495;28;20049;-85
2023/08/11 09:24:13;;;;;;;0.10;0.10;;;;;;;;;;5043814;28;20120;-85
2023/08/11 09:26:42;;;;;;;0.98;0.22;;;;;;;;;;5051577;28;20053;-85
2023/08/11 09:29:08;;;;;;;0.25;0.25;;;;;;;;;;5051862;28;20032;-85
2023/08/11 09:31:35;;;;;;;0.55;0.52;;;;;;;;;;5051799;28;20033;-84
2023/08/11 09:34:11;;;;;;;0.52;0.40;;;;;;;;;;5051477;28;20031;-85
2023/08/11 09:36:37;;;;;;;0.10;0.10;;;;;;;;;;5051693;28;20021;-84
2023/08/11 09:39:10;;;;;;;0.10;0.10;;;;;;;;;;5061365;28;20032;-85
2023/08/11 09:41:47;;;;;;;0.20;0.20;;;;;;;;;;5071675;28;20028;-83
2023/08/11 09:44:17;;;;;;;1.08;0.30;;;;;;;;;;5053588;28;20485;-84
2023/08/11 09:46:44;;;;;;;0.30;0.30;;;;;;;;;;5054137;28;20029;-84
2023/08/11 09:49:10;;;;;;;0.25;0.25;;;;;;;;;;5063335;28;20025;-85
2023/08/11 09:51:36;;;;;;;0.10;0.10;;;;;;;;;;5052066;28;20385;-86
2023/08/11 09:54:04;;;;;;;0.28;0.28;;;;;;;;;;5051302;28;20234;-85
2023/08/11 09:56:31;;;;;;;0.00;0.00;;;;;;;;;;5032981;28;20029;-85
2023/08/11 09:58:59;;;;;;;0.30;0.30;;;;;;;;;;5040041;28;20082;-86
2023/08/11 10:01:25;;;;;;;0.30;0.30;;;;;;;;;;5051562;28;20025;-86
2023/08/11 10:03:52;;;;;;;0.17;0.10;;;;;;;;;;5049852;28;20025;-86
2023/08/11 10:06:22;;;;;;;0.40;0.40;;;;;;;;;;5051011;28;20033;-86
2023/08/11 10:08:49;;;;;;;0.20;0.20;;;;;;;;;;5045312;28;20079;-85
2023/08/11 10:11:16;;;;;;;0.80;0.25;;;;;;;;;;5042856;28;20021;-85
2023/08/11 10:13:42;;;;;;;7.57;1.23;;;;;;;;;;5056371;28;20104;-85
2023/08/11 10:16:08;;;;;;;0.28;0.28;;;;;;;;;;5054780;28;20032;-85
2023/08/11 10:18:35;;;;;;;0.20;0.20;;;;;;;;;;5053857;28;20091;-85
2023/08/11 10:21:02;;;;;;;0.55;0.55;;;;;;;;;;5054051;28;20536;-91
2023/08/11 10:23:28;;;;;;;0.20;0.20;;;;;;;;;;5054590;28;20036;-85
2023/08/11 10:25:55;;;;;;;0.32;0.32;;;;;;;;;;5054344;28;20021;-85
2023/08/11 10:28:22;;;;;;;0.03;0.03;;;;;;;;;;5055040;28;20397;-85
2023/08/11 10:30:58;;;;;;;0.82;0.40;;;;;;;;;;5054608;28;20029;-85
2023/08/11 10:33:28;;;;;;;0.35;0.35;;;;;;;;;;5054092;28;20090;-85
2023/08/11 10:35:56;;;;;;;2.90;1.75;;;;;;;;;;5054720;28;20040;-85
2023/08/11 10:38:33;;;;;;;0.75;0.43;;;;;;;;;;5054312;28;20037;-85
2023/08/11 10:41:25;;;;;;;0.25;0.25;;;;;;;;;;5054940;28;20032;-85
2023/08/11 10:43:51;;;;;;;0.15;0.15;;;;;;;;;;5050336;28;20112;-85
2023/08/11 10:46:24;;;;;;;0.10;0.10;;;;;;;;;;5054190;28;20044;-85
2023/08/11 10:48:54;;;;;;;0.40;0.20;;;;;;;;;;5053152;28;20048;-85
2023/08/11 10:51:23;;;;;;;0.32;0.32;;;;;;;;;;5053512;28;20029;-84
2023/08/11 10:53:49;;;;;;;0.10;0.10;;;;;;;;;;5042605;28;20076;-85
2023/08/11 10:56:15;;;;;;;0.30;0.30;;;;;;;;;;5050814;28;20036;-85
2023/08/11 10:58:44;;;;;;;0.13;0.13;;;;;;;;;;5054183;28;20540;-86
2023/08/11 11:01:10;;;;;;;0.17;0.17;;;;;;;;;;5051722;28;20037;-86
2023/08/11 11:03:36;;;;;;;0.00;0.00;;;;;;;;;;5053881;28;20500;-84
2023/08/11 11:06:07;;;;;;;0.20;0.20;;;;;;;;;;5053772;28;20025;-85
2023/08/11 11:08:33;;;;;;;0.05;0.05;;;;;;;;;;5052267;28;20374;-84
2023/08/11 11:10:59;;;;;;;0.30;0.30;;;;;;;;;;5053881;28;20021;-85
2023/08/11 11:13:25;;;;;;;1.25;0.50;;;;;;;;;;5053591;28;20041;-84
2023/08/11 11:15:51;;;;;;;0.10;0.10;;;;;;;;;;5053283;28;20029;-86
2023/08/11 11:18:17;;;;;;;0.32;0.30;;;;;;;;;;5049831;28;20077;-85
2023/08/11 11:20:45;;;;;;;0.13;0.13;;;;;;;;;;5053356;28;20052;-85
2023/08/11 11:23:11;;;;;;;0.05;0.05;;;;;;;;;;5041672;28;20033;-85
2023/08/11 11:25:37;;;;;;;0.20;0.20;;;;;;;;;;5053730;28;20078;-86
2023/08/11 11:28:04;;;;;;;0.10;0.10;;;;;;;;;;5053324;28;20393;-83
2023/08/11 11:30:30;;;;;;;5.53;0.40;;;;;;;;;;5053114;28;20503;-83
2023/08/11 11:32:58;;;;;;;0.35;0.28;;;;;;;;;;5053601;28;20075;-84
2023/08/11 11:35:24;;;;;;;0.15;0.15;;;;;;;;;;5053275;28;20028;-84
2023/08/11 11:37:51;;;;;;;0.10;0.10;;;;;;;;;;5035525;28;20410;-84
2023/08/11 11:40:17;;;;;;;0.10;0.10;;;;;;;;;;5033662;28;20033;-84
2023/08/11 11:42:43;;;;;;;0.55;0.55;;;;;;;;;;5047621;28;20392;-87
2023/08/11 11:45:10;;;;;;;0.00;0.00;;;;;;;;;;5056030;28;20033;-84
2023/08/11 11:47:36;;;;;;;0.30;0.13;;;;;;;;;;5052299;28;20040;-81
2023/08/11 11:50:06;;;;;;;0.08;0.08;;;;;;;;;;5053332;28;20028;-81
2023/08/11 11:52:32;;;;;;;0.10;0.10;;;;;;;;;;5052209;28;20033;-81
2023/08/11 11:54:58;;;;;;;0.13;0.13;;;;;;;;;;5053078;28;20064;-81
2023/08/11 11:57:24;;;;;;;0.10;0.10;;;;;;;;;;5053179;28;20025;-81
2023/08/11 11:59:50;;;;;;;0.13;0.13;;;;;;;;;;5052698;28;20060;-81
2023/08/11 12:02:17;;;;;;;0.32;0.32;;;;;;;;;;5051726;28;20033;-82
2023/08/11 12:04:43;;;;;;;0.10;0.10;;;;;;;;;;5053287;28;20551;-81
2023/08/11 12:07:09;;;;;;;0.30;0.20;;;;;;;;;;5052762;28;20064;-82
2023/08/11 12:09:51;;;;;;;0.10;0.10;;;;;;;;;;5052993;28;20079;-81
2023/08/11 12:12:17;;;;;;;0.10;0.10;;;;;;;;;;5052892;28;20033;-82
2023/08/11 12:14:43;;;;;;;0.20;0.20;;;;;;;;;;5052720;28;20355;-82
2023/08/11 12:17:09;;;;;;;0.10;0.10;;;;;;;;;;5053038;28;20033;-82
2023/08/11 12:19:35;;;;;;;0.00;0.00;;;;;;;;;;5052540;28;20043;-81
2023/08/11 12:22:01;;;;;;;0.10;0.10;;;;;;;;;;5052537;28;20136;-82
2023/08/11 12:24:27;;;;;;;0.35;0.30;;;;;;;;;;5052632;28;20017;-81
2023/08/11 12:26:53;;;;;;;0.10;0.10;;;;;;;;;;5052212;28;20029;-81
2023/08/11 12:29:19;;;;;;;0.15;0.15;;;;;;;;;;5052839;28;20486;-81
2023/08/11 12:31:45;;;;;;;0.17;0.17;;;;;;;;;;5052473;28;20040;-82
2023/08/11 12:34:11;;;;;;;0.20;0.20;;;;;;;;;;5052212;28;20025;-81
2023/08/11 12:36:37;;;;;;;0.10;0.10;;;;;;;;;;5052367;28;20429;-82
2023/08/11 12:39:03;;;;;;;0.10;0.10;;;;;;;;;;5052191;28;20029;-82
2023/08/11 12:41:29;;;;;;;0.40;0.28;;;;;;;;;;5050898;28;20362;-82
2023/08/11 12:43:55;;;;;;;0.10;0.10;;;;;;;;;;5052611;28;20055;-82
2023/08/11 12:46:21;;;;;;;0.17;0.17;;;;;;;;;;5052443;28;20143;-82
2023/08/11 12:48:48;;;;;;;0.32;0.32;;;;;;;;;;5052265;28;20033;-82
2023/08/11 12:51:14;;;;;;;0.20;0.20;;;;;;;;;;5052133;28;20035;-82
2023/08/11 12:53:40;;;;;;;0.13;0.13;;;;;;;;;;5052609;28;20025;-81
2023/08/11 12:56:06;;;;;;;0.22;0.22;;;;;;;;;;5051749;28;20616;-82
2023/08/11 12:58:32;;;;;;;0.13;0.10;;;;;;;;;;5051975;28;20033;-82
2023/08/11 13:00:59;;;;;;;0.30;0.30;;;;;;;;;;5052158;28;20040;-82
2023/08/11 13:03:25;;;;;;;0.15;0.15;;;;;;;;;;5052208;28;20083;-82
2023/08/11 13:05:51;;;;;;;0.10;0.10;;;;;;;;;;5051915;28;20021;-81
2023/08/11 13:08:17;;;;;;;0.10;0.10;;;;;;;;;;5052118;28;20025;-81
2023/08/11 13:10:43;;;;;;;0.30;0.20;;;;;;;;;;5051621;28;20025;-82
2023/08/11 13:13:09;;;;;;;0.22;0.22;;;;;;;;;;5051895;28;20078;-82
2023/08/11 13:15:35;;;;;;;0.10;0.10;;;;;;;;;;5052275;28;20033;-82
2023/08/11 13:18:02;;;;;;;0.10;0.10;;;;;;;;;;5051670;28;20103;-81
2023/08/11 13:20:28;;;;;;;0.10;0.10;;;;;;;;;;5051708;28;20057;-82
2023/08/11 13:22:54;;;;;;;0.10;0.10;;;;;;;;;;5050576;28;20098;-82
2023/08/11 13:25:20;;;;;;;0.20;0.20;;;;;;;;;;5050536;28;20029;-82
2023/08/11 13:27:46;;;;;;;0.20;0.20;;;;;;;;;;5051770;28;20120;-82
2023/08/11 13:30:13;;;;;;;0.63;0.40;;;;;;;;;;5051826;28;20496;-82
2023/08/11 13:32:41;;;;;;;0.20;0.20;;;;;;;;;;5051635;28;20072;-81
2023/08/11 13:35:08;;;;;;;0.30;0.30;;;;;;;;;;5052036;28;20121;-81
2023/08/11 13:37:35;;;;;;;0.43;0.40;;;;;;;;;;5051862;28;20040;-82
2023/08/11 13:40:01;;;;;;;0.25;0.25;;;;;;;;;;5049995;28;20083;-82
2023/08/11 13:42:27;;;;;;;0.10;0.10;;;;;;;;;;5052139;28;20096;-81
2023/08/11 13:44:53;;;;;;;0.10;0.10;;;;;;;;;;5051963;28;20113;-82
2023/08/11 13:47:19;;;;;;;0.10;0.10;;;;;;;;;;5055592;28;20068;-82
2023/08/11 13:49:45;;;;;;;0.40;0.40;;;;;;;;;;5055506;28;20025;-81
2023/08/11 13:52:11;;;;;;;0.40;0.30;;;;;;;;;;5055374;28;20037;-82
2023/08/11 13:54:37;;;;;;;0.45;0.10;;;;;;;;;;5055581;28;20031;-82
2023/08/11 13:57:03;;;;;;;1.10;0.43;;;;;;;;;;5055570;28;20538;-82
2023/08/11 13:59:29;;;;;;;0.20;0.20;;;;;;;;;;5053898;28;20045;-82
2023/08/11 14:01:55;;;;;;;0.40;0.40;;;;;;;;;;5055787;28;20055;-82
2023/08/11 14:04:21;;;;;;;0.10;0.10;;;;;;;;;;5055175;28;20060;-81
2023/08/11 14:06:47;;;;;;;0.30;0.30;;;;;;;;;;5055118;28;20454;-82
2023/08/11 14:09:13;;;;;;;0.20;0.20;;;;;;;;;;5054973;28;20025;-82
2023/08/11 14:11:39;;;;;;;0.20;0.20;;;;;;;;;;5055076;28;20036;-82
2023/08/11 14:14:06;;;;;;;0.20;0.20;;;;;;;;;;5054826;28;20025;-82
2023/08/11 14:16:32;;;;;;;0.20;0.20;;;;;;;;;;5054939;28;20066;-82
2023/08/11 14:18:58;;;;;;;0.15;0.15;;;;;;;;;;5055398;28;20039;-82
2023/08/11 14:21:24;;;;;;;0.10;0.10;;;;;;;;;;5054709;28;20424;-82
2023/08/11 14:23:50;;;;;;;0.25;0.10;;;;;;;;;;5054352;28;20021;-82
2023/08/11 14:26:16;;;;;;;0.22;0.22;;;;;;;;;;5054983;28;20219;-82
2023/08/11 14:28:42;;;;;;;0.10;0.10;;;;;;;;;;5054754;28;20116;-82
2023/08/11 14:31:08;;;;;;;0.10;0.10;;;;;;;;;;5055099;28;20035;-82
2023/08/11 14:33:34;;;;;;;0.03;0.03;;;;;;;;;;5054926;28;20025;-82
2023/08/11 14:36:00;;;;;;;0.10;0.10;;;;;;;;;;5054668;28;20053;-82
2023/08/11 14:38:26;;;;;;;0.03;0.03;;;;;;;;;;5054217;28;20481;-82
2023/08/11 14:40:52;;;;;;;0.10;0.10;;;;;;;;;;5054601;28;20028;-82